createdAt,value
2022-08-17T00:02:25.412Z,957.99
2022-08-17T00:07:23.559Z,958
2022-08-17T00:12:42.455Z,957.95
2022-08-17T00:17:26.707Z,957.84
2022-08-17T00:22:33.354Z,957.79
2022-08-17T00:27:30.521Z,957.78
2022-08-17T00:33:10.235Z,957.77
2022-08-17T00:37:34.060Z,957.72
2022-08-17T00:42:35.904Z,957.73
2022-08-17T00:47:37.098Z,957.66
2022-08-17T00:52:38.799Z,957.63
2022-08-17T00:57:40.531Z,957.59
2022-08-17T01:02:42.081Z,957.57
2022-08-17T01:07:43.466Z,957.57
2022-08-17T01:12:45.268Z,957.6
2022-08-17T01:17:46.531Z,957.59
2022-08-17T01:22:47.725Z,957.6
2022-08-17T01:27:49.089Z,957.6
2022-08-17T01:32:59.566Z,957.53
2022-08-17T01:37:53.063Z,957.58
2022-08-17T01:42:54.686Z,957.59
2022-08-17T01:47:56.390Z,957.6
2022-08-17T01:52:58.559Z,957.61
2022-08-17T01:58:00.370Z,957.57
2022-08-17T02:03:02.213Z,957.55
2022-08-17T02:08:04.359Z,957.51
2022-08-17T02:13:06.364Z,957.43
2022-08-17T02:18:08.248Z,957.42
2022-08-17T02:23:10.013Z,957.43
2022-08-17T02:28:11.600Z,957.46
2022-08-17T02:33:13.123Z,957.48
2022-08-17T02:38:14.704Z,957.36
2022-08-17T02:43:16.152Z,957.34
2022-08-17T02:48:30.592Z,957.29
2022-08-17T02:53:19.779Z,957.22
2022-08-17T03:43:42.094Z,957.26
2022-08-17T03:48:44.234Z,957.31
2022-08-17T03:53:46.017Z,957.32
2022-08-17T03:58:47.923Z,957.36
2022-08-17T04:03:49.538Z,957.36
2022-08-17T04:08:51.382Z,957.38
2022-08-17T04:18:54.788Z,957.51
2022-08-17T04:23:56.579Z,957.53
2022-08-17T04:28:58.062Z,957.5
2022-08-17T04:34:00.107Z,957.42
2022-08-17T04:39:01.535Z,957.44
2022-08-17T04:44:03.357Z,957.38
2022-08-17T04:49:05.090Z,957.3
2022-08-17T04:54:07.252Z,957.29
2022-08-17T04:59:08.901Z,957.3
2022-08-17T05:04:21.223Z,957.24
2022-08-17T05:09:12.370Z,957.19
2022-08-17T05:14:14.227Z,957.25
2022-08-17T05:19:15.996Z,957.3
2022-08-17T05:24:38.819Z,957.35
2022-08-17T05:29:19.391Z,957.34
2022-08-17T05:34:20.906Z,957.53
2022-08-17T05:39:22.930Z,957.62
2022-08-17T05:44:24.859Z,957.79
2022-08-17T05:49:26.659Z,957.66
2022-08-17T05:54:28.519Z,957.59
2022-08-17T05:59:30.307Z,957.62
2022-08-17T06:04:32.315Z,957.65
2022-08-17T06:09:34.048Z,957.75
2022-08-17T06:14:34.714Z,957.73
2022-08-17T06:19:36.404Z,957.77
2022-08-17T06:24:38.537Z,957.77
2022-08-17T06:29:40.070Z,957.79
2022-08-17T06:34:42.010Z,957.79
2022-08-17T06:39:44.225Z,957.86
2022-08-17T06:44:50.516Z,957.87
2022-08-17T06:49:50.557Z,957.93
2022-08-17T06:54:48.963Z,957.89
2022-08-17T06:59:53.271Z,957.91
2022-08-17T07:04:52.214Z,957.91
2022-08-17T07:09:53.642Z,958.03
2022-08-17T07:14:55.374Z,958.1
2022-08-17T07:19:57.074Z,958.05
2022-08-17T07:24:59.239Z,958.05
2022-08-17T07:30:01.046Z,958.05
2022-08-17T07:35:02.799Z,957.99
2022-08-17T07:40:15.762Z,958.11
2022-08-17T07:45:06.571Z,958.15
2022-08-17T07:50:08.374Z,958.15
2022-08-17T07:55:09.556Z,958.19
2022-08-17T08:00:12.750Z,958.22
2022-08-17T08:05:13.159Z,958.28
2022-08-17T08:10:15.159Z,958.27
2022-08-17T08:15:16.868Z,958.2
2022-08-17T08:20:19.736Z,958.1
2022-08-17T08:25:19.774Z,958.11
2022-08-17T08:30:21.887Z,958.1
2022-08-17T08:35:23.320Z,958.13
2022-08-17T08:40:25.356Z,958.04
2022-08-17T08:45:27.260Z,958.02
2022-08-17T08:50:30.373Z,958.05
2022-08-17T08:55:30.247Z,958.13
2022-08-17T09:00:32.352Z,958.01
2022-08-17T09:05:34.029Z,957.9
2022-08-17T09:10:35.486Z,957.78
2022-08-17T09:15:37.589Z,957.85
2022-08-17T09:20:39.734Z,957.93
2022-08-17T09:25:41.714Z,957.97
2022-08-17T09:30:43.198Z,957.99
2022-08-17T09:35:45.307Z,958.06
2022-08-17T09:40:46.676Z,958.06
2022-08-17T09:45:48.517Z,957.97
2022-08-17T09:50:55.233Z,957.78
2022-08-17T09:55:52.678Z,957.88
2022-08-17T10:00:54.823Z,957.89
2022-08-17T10:05:56.322Z,957.9
2022-08-17T10:10:57.906Z,957.86
2022-08-17T10:15:59.453Z,957.97
2022-08-17T10:21:01.459Z,957.94
2022-08-17T10:26:02.717Z,957.89
2022-08-17T10:31:33.514Z,957.74
2022-08-17T10:36:10.237Z,957.74
2022-08-17T10:41:08.179Z,957.77
2022-08-17T10:46:10.781Z,957.74
2022-08-17T10:51:11.537Z,957.76
2022-08-17T10:56:12.765Z,957.89
2022-08-17T11:01:14.374Z,957.92
2022-08-17T11:06:16.065Z,957.81
2022-08-17T11:11:17.891Z,957.83
2022-08-17T11:16:19.843Z,957.82
2022-08-17T11:21:21.823Z,957.87
2022-08-17T11:26:31.728Z,957.9
2022-08-17T11:31:38.099Z,957.87
2022-08-17T11:36:27.818Z,957.73
2022-08-17T11:41:29.805Z,957.74
2022-08-17T11:46:31.666Z,957.76
2022-08-17T11:51:33.356Z,957.69
2022-08-17T11:56:35.352Z,957.74
2022-08-17T12:01:36.868Z,957.75
2022-08-17T12:06:38.849Z,957.85
2022-08-17T12:11:54.862Z,957.91
2022-08-17T12:16:41.513Z,957.87
2022-08-17T12:21:42.861Z,957.77
2022-08-17T12:26:44.183Z,957.81
2022-08-17T12:31:45.740Z,957.75
2022-08-17T12:36:47.156Z,957.75
2022-08-17T12:41:50.185Z,957.74
2022-08-17T12:46:50.484Z,957.64
2022-08-17T12:51:52.276Z,957.52
2022-08-17T12:56:53.539Z,957.5
2022-08-17T13:01:55.540Z,957.46
2022-08-17T13:06:58.142Z,957.4
2022-08-17T13:11:58.331Z,957.41
2022-08-17T13:17:00.507Z,957.41
2022-08-17T13:22:01.937Z,957.41
2022-08-17T13:27:07.726Z,957.38
2022-08-17T13:32:05.270Z,957.29
2022-08-17T13:37:06.562Z,957.34
2022-08-17T13:42:11.149Z,957.39
2022-08-17T13:47:10.081Z,957.42
2022-08-17T13:52:12.157Z,957.37
2022-08-17T13:57:13.425Z,957.36
2022-08-17T14:02:14.706Z,957.31
2022-08-17T14:07:16.159Z,957.37
2022-08-17T14:12:17.562Z,957.31
2022-08-17T14:17:18.748Z,957.19
2022-08-17T14:22:20.624Z,957.05
2022-08-17T14:27:22.357Z,957
2022-08-17T14:32:23.832Z,957.02
2022-08-17T14:37:25.274Z,956.99
2022-08-17T14:42:26.888Z,956.78
2022-08-17T14:47:28.884Z,956.68
2022-08-17T14:52:30.728Z,956.67
2022-08-17T14:57:33.880Z,956.7
2022-08-17T15:02:33.179Z,956.61
2022-08-17T15:07:35.165Z,956.57
2022-08-17T15:12:36.726Z,956.59
2022-08-17T15:17:44.082Z,956.73
2022-08-17T15:22:40.291Z,956.7
2022-08-17T15:27:41.634Z,956.74
2022-08-17T15:32:45.748Z,956.78
2022-08-17T15:37:45.628Z,956.87
2022-08-17T15:42:47.493Z,956.99
2022-08-17T15:47:48.954Z,956.89
2022-08-17T15:52:50.508Z,956.9
2022-08-17T15:57:52.016Z,956.88
2022-08-17T16:03:09.889Z,956.88
2022-08-17T16:07:55.323Z,956.88
2022-08-17T16:12:57.145Z,956.89
2022-08-17T16:17:58.586Z,956.91
2022-08-17T16:23:00.186Z,956.86
2022-08-17T16:28:01.669Z,956.86
2022-08-17T16:33:03.794Z,956.84
2022-08-17T16:38:05.067Z,956.8
2022-08-17T16:43:06.312Z,956.73
2022-08-17T16:48:07.840Z,956.7
2022-08-17T16:53:09.658Z,956.59
2022-08-17T16:58:11.512Z,956.57
2022-08-17T17:03:19.286Z,956.48
2022-08-17T17:08:14.811Z,956.54
2022-08-17T17:13:16.033Z,956.5
2022-08-17T17:18:17.846Z,956.44
2022-08-17T17:23:19.893Z,956.35
2022-08-17T17:28:21.839Z,956.35
2022-08-17T17:53:34.910Z,956.36
2022-08-17T18:03:33.677Z,956.31
2022-08-17T18:23:39.978Z,956.1
2022-08-17T18:28:41.311Z,956.1
2022-08-17T18:33:43.026Z,956.2
2022-08-17T18:48:55.920Z,956.25
2022-08-17T18:53:49.839Z,956.23
2022-08-17T18:58:51.647Z,956.19
2022-08-17T19:03:53.471Z,956.2
2022-08-17T19:08:55.079Z,956.15
2022-08-17T19:13:56.474Z,956.11
2022-08-17T19:18:58.506Z,955.96
2022-08-17T19:24:08.829Z,955.92
2022-08-17T19:29:01.040Z,955.96
2022-08-17T19:34:03.000Z,956.11
2022-08-17T19:39:04.349Z,956.19
2022-08-17T19:44:12.175Z,956.27
2022-08-17T19:49:14.239Z,956.36
2022-08-17T19:54:15.734Z,956.42
2022-08-17T19:59:17.574Z,956.41
2022-08-17T20:04:18.936Z,956.44
2022-08-17T20:09:20.759Z,956.49
2022-08-17T20:14:22.360Z,956.52
2022-08-17T20:19:24.110Z,956.49
2022-08-17T20:24:25.389Z,956.51
2022-08-17T20:29:31.932Z,956.56
2022-08-17T20:34:30.781Z,956.52
2022-08-17T20:39:30.272Z,956.38
2022-08-17T20:44:31.544Z,956.2
2022-08-17T20:49:33.573Z,956.13
2022-08-17T20:54:35.701Z,956.15
2022-08-17T20:59:37.674Z,956.06
2022-08-17T21:04:39.731Z,956.03
2022-08-17T21:09:41.852Z,956.05
2022-08-17T21:14:43.802Z,956.08
2022-08-17T21:24:47.362Z,956.13
2022-08-17T21:29:48.785Z,956.08
2022-08-17T21:34:50.690Z,955.96
2022-08-17T21:39:52.032Z,955.84
2022-08-17T21:44:53.612Z,955.87
2022-08-17T21:49:55.452Z,956
2022-08-17T21:54:57.355Z,956.05
2022-08-17T21:59:59.231Z,956
2022-08-17T22:15:04.765Z,956.1
2022-08-17T22:20:06.886Z,956.31
2022-08-17T22:25:08.259Z,956.89
2022-08-17T22:30:09.935Z,957.22
2022-08-17T22:35:11.085Z,957.76
2022-08-17T22:40:12.350Z,957.97
2022-08-17T22:45:13.842Z,958.42
2022-08-17T22:50:15.723Z,958.48
2022-08-17T22:55:16.968Z,958.64
2022-08-17T23:00:19.124Z,958.68
2022-08-17T23:05:21.239Z,958.64
2022-08-17T23:10:23.126Z,958.82
2022-08-17T23:15:24.684Z,958.81
2022-08-17T23:20:26.795Z,958.85
2022-08-17T23:25:28.729Z,958.65
2022-08-17T23:30:30.764Z,958.59
2022-08-17T23:35:39.529Z,958.37
2022-08-17T23:40:34.308Z,958.28
2022-08-17T23:45:36.357Z,958.34
2022-08-17T23:50:38.039Z,958.44
2022-08-17T23:55:39.449Z,958.6
